sensor_id;sensor_type;location;lat;lon;timestamp;temperature;humidity
9403;DHT22;4741;49.834;10.740;2022-07-17T00:01:26;12.00;99.90
9403;DHT22;4741;49.834;10.740;2022-07-17T00:03:53;12.40;99.90
9403;DHT22;4741;49.834;10.740;2022-07-17T00:06:21;11.70;99.90
9403;DHT22;4741;49.834;10.740;2022-07-17T00:08:47;12.10;99.90
9403;DHT22;4741;49.834;10.740;2022-07-17T00:11:14;12.80;99.90
9403;DHT22;4741;49.834;10.740;2022-07-17T00:13:41;12.00;99.90
9403;DHT22;4741;49.834;10.740;2022-07-17T00:16:08;12.60;99.90
9403;DHT22;4741;49.834;10.740;2022-07-17T00:18:35;12.40;99.90
9403;DHT22;4741;49.834;10.740;2022-07-17T00:21:02;11.70;99.90
9403;DHT22;4741;49.834;10.740;2022-07-17T00:23:28;12.00;99.90
9403;DHT22;4741;49.834;10.740;2022-07-17T00:25:55;12.30;99.90
9403;DHT22;4741;49.834;10.740;2022-07-17T00:28:22;12.20;99.90
9403;DHT22;4741;49.834;10.740;2022-07-17T00:30:49;11.60;99.90
9403;DHT22;4741;49.834;10.740;2022-07-17T00:33:16;12.40;99.90
9403;DHT22;4741;49.834;10.740;2022-07-17T00:35:43;11.60;99.90
9403;DHT22;4741;49.834;10.740;2022-07-17T00:38:10;11.30;99.90
9403;DHT22;4741;49.834;10.740;2022-07-17T00:40:36;11.70;99.90
9403;DHT22;4741;49.834;10.740;2022-07-17T00:45:30;11.10;99.90
9403;DHT22;4741;49.834;10.740;2022-07-17T00:47:59;11.20;99.90
9403;DHT22;4741;49.834;10.740;2022-07-17T00:50:30;12.00;99.90
9403;DHT22;4741;49.834;10.740;2022-07-17T00:53:01;11.10;99.90
9403;DHT22;4741;49.834;10.740;2022-07-17T00:55:28;12.10;99.90
9403;DHT22;4741;49.834;10.740;2022-07-17T00:58:12;11.60;99.90
9403;DHT22;4741;49.834;10.740;2022-07-17T01:00:39;12.20;99.90
9403;DHT22;4741;49.834;10.740;2022-07-17T01:03:07;12.50;99.90
9403;DHT22;4741;49.834;10.740;2022-07-17T01:05:35;11.70;99.90
9403;DHT22;4741;49.834;10.740;2022-07-17T01:08:02;12.00;99.90
9403;DHT22;4741;49.834;10.740;2022-07-17T01:10:28;11.00;99.90
9403;DHT22;4741;49.834;10.740;2022-07-17T01:12:55;10.80;99.90
9403;DHT22;4741;49.834;10.740;2022-07-17T01:17:50;10.40;99.90
9403;DHT22;4741;49.834;10.740;2022-07-17T01:20:17;11.00;99.90
9403;DHT22;4741;49.834;10.740;2022-07-17T01:25:12;10.30;99.90
9403;DHT22;4741;49.834;10.740;2022-07-17T01:27:39;11.00;99.90
9403;DHT22;4741;49.834;10.740;2022-07-17T01:30:08;11.70;99.90
9403;DHT22;4741;49.834;10.740;2022-07-17T01:32:36;9.90;99.90
9403;DHT22;4741;49.834;10.740;2022-07-17T01:35:03;10.30;99.90
9403;DHT22;4741;49.834;10.740;2022-07-17T01:37:31;10.20;99.90
9403;DHT22;4741;49.834;10.740;2022-07-17T01:39:58;10.50;99.90
9403;DHT22;4741;49.834;10.740;2022-07-17T01:42:25;11.40;99.90
9403;DHT22;4741;49.834;10.740;2022-07-17T01:44:53;10.00;99.90
9403;DHT22;4741;49.834;10.740;2022-07-17T01:47:20;10.10;99.90
9403;DHT22;4741;49.834;10.740;2022-07-17T01:49:49;10.90;99.90
9403;DHT22;4741;49.834;10.740;2022-07-17T01:52:16;10.70;99.90
9403;DHT22;4741;49.834;10.740;2022-07-17T01:54:43;10.70;99.90
9403;DHT22;4741;49.834;10.740;2022-07-17T01:57:10;11.40;99.90
9403;DHT22;4741;49.834;10.740;2022-07-17T01:59:38;9.20;99.90
9403;DHT22;4741;49.834;10.740;2022-07-17T02:02:05;11.20;99.90
9403;DHT22;4741;49.834;10.740;2022-07-17T02:04:33;10.80;99.90
9403;DHT22;4741;49.834;10.740;2022-07-17T02:07:00;10.60;99.90
9403;DHT22;4741;49.834;10.740;2022-07-17T02:09:27;10.70;99.90
9403;DHT22;4741;49.834;10.740;2022-07-17T02:11:54;10.90;99.90
9403;DHT22;4741;49.834;10.740;2022-07-17T02:14:21;11.00;99.90
9403;DHT22;4741;49.834;10.740;2022-07-17T02:16:48;11.00;99.90
9403;DHT22;4741;49.834;10.740;2022-07-17T02:19:15;11.00;99.90
9403;DHT22;4741;49.834;10.740;2022-07-17T02:21:42;10.70;99.90
9403;DHT22;4741;49.834;10.740;2022-07-17T02:24:09;11.20;99.90
9403;DHT22;4741;49.834;10.740;2022-07-17T02:26:36;11.10;99.90
9403;DHT22;4741;49.834;10.740;2022-07-17T02:29:03;11.10;99.90
9403;DHT22;4741;49.834;10.740;2022-07-17T02:31:30;10.00;99.90
9403;DHT22;4741;49.834;10.740;2022-07-17T02:36:25;9.50;99.90
9403;DHT22;4741;49.834;10.740;2022-07-17T02:38:52;10.30;99.90
9403;DHT22;4741;49.834;10.740;2022-07-17T02:41:19;9.60;99.90
9403;DHT22;4741;49.834;10.740;2022-07-17T02:43:46;9.60;99.90
9403;DHT22;4741;49.834;10.740;2022-07-17T02:46:13;10.50;99.90
9403;DHT22;4741;49.834;10.740;2022-07-17T02:48:43;10.20;99.90
9403;DHT22;4741;49.834;10.740;2022-07-17T02:51:10;10.40;99.90
9403;DHT22;4741;49.834;10.740;2022-07-17T02:53:36;10.00;99.90
9403;DHT22;4741;49.834;10.740;2022-07-17T02:56:03;10.50;99.90
9403;DHT22;4741;49.834;10.740;2022-07-17T02:58:30;9.40;99.90
9403;DHT22;4741;49.834;10.740;2022-07-17T03:00:57;10.50;99.90
9403;DHT22;4741;49.834;10.740;2022-07-17T03:03:24;9.60;99.90
9403;DHT22;4741;49.834;10.740;2022-07-17T03:05:51;10.10;99.90
9403;DHT22;4741;49.834;10.740;2022-07-17T03:08:18;9.50;99.90
9403;DHT22;4741;49.834;10.740;2022-07-17T03:10:45;9.40;99.90
9403;DHT22;4741;49.834;10.740;2022-07-17T03:13:15;9.70;99.90
9403;DHT22;4741;49.834;10.740;2022-07-17T03:15:42;9.70;99.90
9403;DHT22;4741;49.834;10.740;2022-07-17T03:18:09;10.20;99.90
9403;DHT22;4741;49.834;10.740;2022-07-17T03:20:35;8.70;99.90
9403;DHT22;4741;49.834;10.740;2022-07-17T03:23:03;8.70;99.90
9403;DHT22;4741;49.834;10.740;2022-07-17T03:25:30;9.60;99.90
9403;DHT22;4741;49.834;10.740;2022-07-17T03:27:57;9.30;99.90
9403;DHT22;4741;49.834;10.740;2022-07-17T03:30:26;8.40;99.90
9403;DHT22;4741;49.834;10.740;2022-07-17T03:32:53;9.60;99.90
9403;DHT22;4741;49.834;10.740;2022-07-17T03:35:20;9.10;99.90
9403;DHT22;4741;49.834;10.740;2022-07-17T03:37:47;8.90;99.90
9403;DHT22;4741;49.834;10.740;2022-07-17T03:40:14;9.10;99.90
9403;DHT22;4741;49.834;10.740;2022-07-17T03:42:41;9.00;99.90
9403;DHT22;4741;49.834;10.740;2022-07-17T03:45:08;9.30;99.90
9403;DHT22;4741;49.834;10.740;2022-07-17T03:47:35;8.70;99.90
9403;DHT22;4741;49.834;10.740;2022-07-17T03:50:02;9.40;99.90
9403;DHT22;4741;49.834;10.740;2022-07-17T03:52:29;9.00;99.90
9403;DHT22;4741;49.834;10.740;2022-07-17T03:54:56;8.80;99.90
9403;DHT22;4741;49.834;10.740;2022-07-17T03:57:23;9.50;99.90
9403;DHT22;4741;49.834;10.740;2022-07-17T03:59:50;9.50;99.90
9403;DHT22;4741;49.834;10.740;2022-07-17T04:02:17;9.00;99.90
9403;DHT22;4741;49.834;10.740;2022-07-17T04:04:44;9.70;99.90
9403;DHT22;4741;49.834;10.740;2022-07-17T04:07:11;9.40;99.90
9403;DHT22;4741;49.834;10.740;2022-07-17T04:09:54;9.00;99.90
9403;DHT22;4741;49.834;10.740;2022-07-17T04:12:24;9.00;99.90
9403;DHT22;4741;49.834;10.740;2022-07-17T04:14:51;9.60;99.90
9403;DHT22;4741;49.834;10.740;2022-07-17T04:17:18;9.70;99.90
9403;DHT22;4741;49.834;10.740;2022-07-17T04:19:45;9.40;99.90
9403;DHT22;4741;49.834;10.740;2022-07-17T04:22:14;9.60;99.90
9403;DHT22;4741;49.834;10.740;2022-07-17T04:24:44;9.40;99.90
9403;DHT22;4741;49.834;10.740;2022-07-17T04:27:11;9.80;99.90
9403;DHT22;4741;49.834;10.740;2022-07-17T04:29:38;10.10;99.90
9403;DHT22;4741;49.834;10.740;2022-07-17T04:32:08;9.80;99.90
9403;DHT22;4741;49.834;10.740;2022-07-17T04:34:38;10.00;99.90
9403;DHT22;4741;49.834;10.740;2022-07-17T04:37:17;9.00;99.90
9403;DHT22;4741;49.834;10.740;2022-07-17T04:39:50;9.50;99.90
9403;DHT22;4741;49.834;10.740;2022-07-17T04:42:19;9.00;99.90
9403;DHT22;4741;49.834;10.740;2022-07-17T04:44:48;10.60;99.90
9403;DHT22;4741;49.834;10.740;2022-07-17T04:47:15;9.80;99.90
9403;DHT22;4741;49.834;10.740;2022-07-17T04:49:43;10.10;99.90
9403;DHT22;4741;49.834;10.740;2022-07-17T04:52:10;9.30;99.90
9403;DHT22;4741;49.834;10.740;2022-07-17T04:54:37;9.90;99.90
9403;DHT22;4741;49.834;10.740;2022-07-17T04:57:06;10.00;99.90
9403;DHT22;4741;49.834;10.740;2022-07-17T04:59:38;9.90;99.90
9403;DHT22;4741;49.834;10.740;2022-07-17T05:02:10;9.10;99.90
9403;DHT22;4741;49.834;10.740;2022-07-17T05:07:18;10.10;99.90
9403;DHT22;4741;49.834;10.740;2022-07-17T05:09:50;10.60;99.90
9403;DHT22;4741;49.834;10.740;2022-07-17T05:12:23;10.40;99.90
9403;DHT22;4741;49.834;10.740;2022-07-17T05:15:16;10.10;99.90
9403;DHT22;4741;49.834;10.740;2022-07-17T05:18:05;10.20;99.90
9403;DHT22;4741;49.834;10.740;2022-07-17T05:23:20;10.50;99.90
9403;DHT22;4741;49.834;10.740;2022-07-17T05:25:58;11.80;99.90
9403;DHT22;4741;49.834;10.740;2022-07-17T05:28:39;10.80;99.90
9403;DHT22;4741;49.834;10.740;2022-07-17T05:31:09;10.80;99.90
9403;DHT22;4741;49.834;10.740;2022-07-17T05:33:40;11.30;99.90
9403;DHT22;4741;49.834;10.740;2022-07-17T05:36:10;12.00;99.90
9403;DHT22;4741;49.834;10.740;2022-07-17T05:38:54;10.80;99.90
9403;DHT22;4741;49.834;10.740;2022-07-17T05:41:50;12.10;99.90
9403;DHT22;4741;49.834;10.740;2022-07-17T05:44:25;11.80;99.90
9403;DHT22;4741;49.834;10.740;2022-07-17T05:47:03;12.50;99.90
9403;DHT22;4741;49.834;10.740;2022-07-17T05:49:33;12.10;99.90
9403;DHT22;4741;49.834;10.740;2022-07-17T05:52:17;13.00;99.90
9403;DHT22;4741;49.834;10.740;2022-07-17T05:54:55;13.10;99.90
9403;DHT22;4741;49.834;10.740;2022-07-17T05:57:37;12.60;99.90
9403;DHT22;4741;49.834;10.740;2022-07-17T06:00:17;14.50;99.90
9403;DHT22;4741;49.834;10.740;2022-07-17T06:03:10;12.90;99.90
9403;DHT22;4741;49.834;10.740;2022-07-17T06:05:42;13.10;99.90
9403;DHT22;4741;49.834;10.740;2022-07-17T06:08:49;13.50;99.90
9403;DHT22;4741;49.834;10.740;2022-07-17T06:11:30;13.60;99.90
9403;DHT22;4741;49.834;10.740;2022-07-17T06:14:34;13.90;99.90
9403;DHT22;4741;49.834;10.740;2022-07-17T06:17:24;14.40;99.90
9403;DHT22;4741;49.834;10.740;2022-07-17T06:20:14;14.60;99.90
9403;DHT22;4741;49.834;10.740;2022-07-17T06:23:07;14.00;99.90
9403;DHT22;4741;49.834;10.740;2022-07-17T06:26:30;14.70;99.90
9403;DHT22;4741;49.834;10.740;2022-07-17T06:29:13;14.90;99.90
9403;DHT22;4741;49.834;10.740;2022-07-17T06:32:26;15.20;99.90
9403;DHT22;4741;49.834;10.740;2022-07-17T06:35:21;15.10;99.90
9403;DHT22;4741;49.834;10.740;2022-07-17T06:41:07;15.80;99.90
9403;DHT22;4741;49.834;10.740;2022-07-17T06:46:41;16.20;99.90
9403;DHT22;4741;49.834;10.740;2022-07-17T06:49:27;16.40;99.90
9403;DHT22;4741;49.834;10.740;2022-07-17T06:58:58;17.10;99.90
9403;DHT22;4741;49.834;10.740;2022-07-17T07:18:23;18.70;99.90
9403;DHT22;4741;49.834;10.740;2022-07-17T07:21:27;19.10;99.90
9403;DHT22;4741;49.834;10.740;2022-07-17T07:27:48;18.70;99.90
9403;DHT22;4741;49.834;10.740;2022-07-17T07:30:24;19.00;99.90
9403;DHT22;4741;49.834;10.740;2022-07-17T07:32:54;18.90;99.90
9403;DHT22;4741;49.834;10.740;2022-07-17T07:35:21;19.50;99.90
9403;DHT22;4741;49.834;10.740;2022-07-17T07:42:43;20.00;99.90
9403;DHT22;4741;49.834;10.740;2022-07-17T07:47:58;21.00;99.90
9403;DHT22;4741;49.834;10.740;2022-07-17T07:53:52;20.40;99.90
9403;DHT22;4741;49.834;10.740;2022-07-17T07:56:31;20.80;99.90
9403;DHT22;4741;49.834;10.740;2022-07-17T07:58:58;20.90;99.90
9403;DHT22;4741;49.834;10.740;2022-07-17T08:03:55;20.60;99.90
9403;DHT22;4741;49.834;10.740;2022-07-17T08:06:26;20.90;99.90
9403;DHT22;4741;49.834;10.740;2022-07-17T08:08:52;21.00;99.90
9403;DHT22;4741;49.834;10.740;2022-07-17T08:11:19;21.30;99.90
9403;DHT22;4741;49.834;10.740;2022-07-17T08:13:46;21.20;99.90
9403;DHT22;4741;49.834;10.740;2022-07-17T08:16:13;21.70;99.90
9403;DHT22;4741;49.834;10.740;2022-07-17T08:18:40;21.50;99.90
9403;DHT22;4741;49.834;10.740;2022-07-17T08:21:06;21.20;99.90
9403;DHT22;4741;49.834;10.740;2022-07-17T08:26:01;21.80;99.90
9403;DHT22;4741;49.834;10.740;2022-07-17T08:28:36;21.10;98.80
9403;DHT22;4741;49.834;10.740;2022-07-17T08:31:02;21.90;99.90
9403;DHT22;4741;49.834;10.740;2022-07-17T08:33:29;21.70;99.60
9403;DHT22;4741;49.834;10.740;2022-07-17T08:35:56;21.90;99.40
9403;DHT22;4741;49.834;10.740;2022-07-17T08:38:23;22.00;99.90
9403;DHT22;4741;49.834;10.740;2022-07-17T08:40:49;22.20;97.70
9403;DHT22;4741;49.834;10.740;2022-07-17T08:43:18;22.60;98.20
9403;DHT22;4741;49.834;10.740;2022-07-17T08:45:48;23.00;99.90
9403;DHT22;4741;49.834;10.740;2022-07-17T08:48:16;22.20;97.20
9403;DHT22;4741;49.834;10.740;2022-07-17T08:50:44;21.60;97.30
9403;DHT22;4741;49.834;10.740;2022-07-17T08:53:11;22.40;97.60
9403;DHT22;4741;49.834;10.740;2022-07-17T08:55:38;22.50;97.50
9403;DHT22;4741;49.834;10.740;2022-07-17T09:00:32;22.90;96.90
9403;DHT22;4741;49.834;10.740;2022-07-17T09:03:05;23.20;95.50
9403;DHT22;4741;49.834;10.740;2022-07-17T09:05:34;23.20;95.60
9403;DHT22;4741;49.834;10.740;2022-07-17T09:08:02;24.00;97.10
9403;DHT22;4741;49.834;10.740;2022-07-17T09:12:56;22.90;94.60
9403;DHT22;4741;49.834;10.740;2022-07-17T09:15:23;22.70;93.80
9403;DHT22;4741;49.834;10.740;2022-07-17T09:17:50;22.50;94.60
9403;DHT22;4741;49.834;10.740;2022-07-17T09:20:17;22.50;94.40
9403;DHT22;4741;49.834;10.740;2022-07-17T09:22:56;22.60;95.10
9403;DHT22;4741;49.834;10.740;2022-07-17T09:25:47;22.80;94.00
9403;DHT22;4741;49.834;10.740;2022-07-17T09:28:25;22.90;93.40
9403;DHT22;4741;49.834;10.740;2022-07-17T09:33:57;23.40;98.30
9403;DHT22;4741;49.834;10.740;2022-07-17T09:36:27;23.50;91.80
9403;DHT22;4741;49.834;10.740;2022-07-17T09:38:55;24.10;91.00
9403;DHT22;4741;49.834;10.740;2022-07-17T09:41:26;24.20;91.50
9403;DHT22;4741;49.834;10.740;2022-07-17T09:43:54;24.50;89.40
9403;DHT22;4741;49.834;10.740;2022-07-17T09:46:26;24.80;91.40
9403;DHT22;4741;49.834;10.740;2022-07-17T09:48:55;24.50;88.90
9403;DHT22;4741;49.834;10.740;2022-07-17T09:51:39;24.70;88.80
9403;DHT22;4741;49.834;10.740;2022-07-17T09:54:09;24.60;87.90
9403;DHT22;4741;49.834;10.740;2022-07-17T09:56:38;23.90;88.40
9403;DHT22;4741;49.834;10.740;2022-07-17T10:02:12;24.70;88.10
9403;DHT22;4741;49.834;10.740;2022-07-17T10:04:40;24.20;87.10
9403;DHT22;4741;49.834;10.740;2022-07-17T10:07:09;24.60;89.20
9403;DHT22;4741;49.834;10.740;2022-07-17T10:09:37;24.40;85.30
9403;DHT22;4741;49.834;10.740;2022-07-17T10:12:06;24.50;87.40
9403;DHT22;4741;49.834;10.740;2022-07-17T10:14:40;24.90;85.40
9403;DHT22;4741;49.834;10.740;2022-07-17T10:17:09;25.00;83.00
9403;DHT22;4741;49.834;10.740;2022-07-17T10:19:53;24.20;81.70
9403;DHT22;4741;49.834;10.740;2022-07-17T10:22:23;24.50;80.50
9403;DHT22;4741;49.834;10.740;2022-07-17T10:24:54;25.10;77.70
9403;DHT22;4741;49.834;10.740;2022-07-17T10:27:25;25.70;82.60
9403;DHT22;4741;49.834;10.740;2022-07-17T10:29:59;25.20;90.70
9403;DHT22;4741;49.834;10.740;2022-07-17T10:32:33;25.10;78.50
9403;DHT22;4741;49.834;10.740;2022-07-17T10:35:03;25.90;77.00
9403;DHT22;4741;49.834;10.740;2022-07-17T10:45:07;27.70;80.40
9403;DHT22;4741;49.834;10.740;2022-07-17T10:47:44;27.70;74.40
9403;DHT22;4741;49.834;10.740;2022-07-17T10:50:12;27.30;67.10
9403;DHT22;4741;49.834;10.740;2022-07-17T10:52:42;27.20;71.50
9403;DHT22;4741;49.834;10.740;2022-07-17T10:55:47;26.90;74.50
9403;DHT22;4741;49.834;10.740;2022-07-17T10:58:19;26.70;72.50
9403;DHT22;4741;49.834;10.740;2022-07-17T11:03:26;26.80;68.10
9403;DHT22;4741;49.834;10.740;2022-07-17T11:05:53;26.20;67.60
9403;DHT22;4741;49.834;10.740;2022-07-17T11:08:23;26.70;65.40
9403;DHT22;4741;49.834;10.740;2022-07-17T11:10:50;27.30;65.10
9403;DHT22;4741;49.834;10.740;2022-07-17T11:13:17;27.60;63.00
9403;DHT22;4741;49.834;10.740;2022-07-17T11:18:19;27.80;97.10
9403;DHT22;4741;49.834;10.740;2022-07-17T11:20:50;27.60;60.70
9403;DHT22;4741;49.834;10.740;2022-07-17T11:23:18;28.50;62.50
9403;DHT22;4741;49.834;10.740;2022-07-17T11:26:03;29.60;63.00
9403;DHT22;4741;49.834;10.740;2022-07-17T11:28:37;30.30;60.50
9403;DHT22;4741;49.834;10.740;2022-07-17T11:31:26;29.20;58.70
9403;DHT22;4741;49.834;10.740;2022-07-17T11:33:55;29.00;56.70
9403;DHT22;4741;49.834;10.740;2022-07-17T11:36:23;28.50;58.50
9403;DHT22;4741;49.834;10.740;2022-07-17T11:38:50;28.50;56.30
9403;DHT22;4741;49.834;10.740;2022-07-17T11:41:18;28.60;55.00
9403;DHT22;4741;49.834;10.740;2022-07-17T11:43:45;28.50;53.60
9403;DHT22;4741;49.834;10.740;2022-07-17T11:46:13;28.50;54.60
9403;DHT22;4741;49.834;10.740;2022-07-17T11:48:42;28.80;57.10
9403;DHT22;4741;49.834;10.740;2022-07-17T11:51:09;29.30;55.50
9403;DHT22;4741;49.834;10.740;2022-07-17T11:53:37;28.90;54.70
9403;DHT22;4741;49.834;10.740;2022-07-17T11:56:04;29.80;54.20
9403;DHT22;4741;49.834;10.740;2022-07-17T11:58:42;30.60;54.60
9403;DHT22;4741;49.834;10.740;2022-07-17T12:01:09;30.20;51.90
9403;DHT22;4741;49.834;10.740;2022-07-17T12:03:36;29.60;52.50
9403;DHT22;4741;49.834;10.740;2022-07-17T12:06:04;29.20;52.00
9403;DHT22;4741;49.834;10.740;2022-07-17T12:08:31;29.30;52.80
9403;DHT22;4741;49.834;10.740;2022-07-17T12:11:05;29.10;52.60
9403;DHT22;4741;49.834;10.740;2022-07-17T12:13:41;29.30;53.20
9403;DHT22;4741;49.834;10.740;2022-07-17T12:16:25;29.00;52.60
9403;DHT22;4741;49.834;10.740;2022-07-17T12:21:31;29.10;53.60
9403;DHT22;4741;49.834;10.740;2022-07-17T12:24:05;29.10;53.60
9403;DHT22;4741;49.834;10.740;2022-07-17T12:26:33;29.90;52.60
9403;DHT22;4741;49.834;10.740;2022-07-17T12:29:01;30.80;52.10
9403;DHT22;4741;49.834;10.740;2022-07-17T12:31:28;30.90;51.90
9403;DHT22;4741;49.834;10.740;2022-07-17T12:33:54;31.20;48.20
9403;DHT22;4741;49.834;10.740;2022-07-17T12:36:22;31.10;49.00
9403;DHT22;4741;49.834;10.740;2022-07-17T12:38:48;32.10;49.50
9403;DHT22;4741;49.834;10.740;2022-07-17T12:41:15;32.20;50.20
9403;DHT22;4741;49.834;10.740;2022-07-17T12:43:42;32.10;48.40
9403;DHT22;4741;49.834;10.740;2022-07-17T12:46:09;32.30;47.30
9403;DHT22;4741;49.834;10.740;2022-07-17T12:48:43;32.30;47.80
9403;DHT22;4741;49.834;10.740;2022-07-17T12:51:14;32.30;47.60
9403;DHT22;4741;49.834;10.740;2022-07-17T12:53:42;33.10;45.70
9403;DHT22;4741;49.834;10.740;2022-07-17T12:56:09;33.30;45.70
9403;DHT22;4741;49.834;10.740;2022-07-17T12:58:37;32.60;47.60
9403;DHT22;4741;49.834;10.740;2022-07-17T13:01:04;32.70;45.70
9403;DHT22;4741;49.834;10.740;2022-07-17T13:03:32;33.60;44.80
9403;DHT22;4741;49.834;10.740;2022-07-17T13:08:27;34.20;42.00
9403;DHT22;4741;49.834;10.740;2022-07-17T13:11:03;32.40;43.90
9403;DHT22;4741;49.834;10.740;2022-07-17T13:13:36;32.60;47.30
9403;DHT22;4741;49.834;10.740;2022-07-17T13:16:10;32.80;44.80
9403;DHT22;4741;49.834;10.740;2022-07-17T13:18:38;32.10;44.40
9403;DHT22;4741;49.834;10.740;2022-07-17T13:21:05;31.60;44.90
9403;DHT22;4741;49.834;10.740;2022-07-17T13:23:33;31.90;45.20
9403;DHT22;4741;49.834;10.740;2022-07-17T13:26:00;33.10;45.50
9403;DHT22;4741;49.834;10.740;2022-07-17T13:28:28;33.10;46.50
9403;DHT22;4741;49.834;10.740;2022-07-17T13:30:55;33.60;44.20
9403;DHT22;4741;49.834;10.740;2022-07-17T13:33:23;33.20;43.90
9403;DHT22;4741;49.834;10.740;2022-07-17T13:35:50;32.20;43.60
9403;DHT22;4741;49.834;10.740;2022-07-17T13:38:16;32.70;44.70
9403;DHT22;4741;49.834;10.740;2022-07-17T13:40:45;33.50;42.90
9403;DHT22;4741;49.834;10.740;2022-07-17T13:43:12;32.80;45.10
9403;DHT22;4741;49.834;10.740;2022-07-17T13:45:38;32.40;43.70
9403;DHT22;4741;49.834;10.740;2022-07-17T13:48:05;32.30;45.10
9403;DHT22;4741;49.834;10.740;2022-07-17T13:50:32;32.40;43.30
9403;DHT22;4741;49.834;10.740;2022-07-17T13:53:01;32.80;43.60
9403;DHT22;4741;49.834;10.740;2022-07-17T13:55:28;33.50;44.00
9403;DHT22;4741;49.834;10.740;2022-07-17T13:58:09;35.20;42.40
9403;DHT22;4741;49.834;10.740;2022-07-17T14:03:03;36.70;40.80
9403;DHT22;4741;49.834;10.740;2022-07-17T14:05:30;37.00;39.80
9403;DHT22;4741;49.834;10.740;2022-07-17T14:12:52;35.70;38.30
9403;DHT22;4741;49.834;10.740;2022-07-17T14:15:19;35.80;40.10
9403;DHT22;4741;49.834;10.740;2022-07-17T14:17:45;36.00;38.40
9403;DHT22;4741;49.834;10.740;2022-07-17T14:20:12;35.60;39.10
9403;DHT22;4741;49.834;10.740;2022-07-17T14:22:39;35.80;38.70
9403;DHT22;4741;49.834;10.740;2022-07-17T14:25:06;35.60;40.20
9403;DHT22;4741;49.834;10.740;2022-07-17T14:27:33;35.00;39.80
9403;DHT22;4741;49.834;10.740;2022-07-17T14:30:00;35.00;40.60
9403;DHT22;4741;49.834;10.740;2022-07-17T14:32:27;34.90;40.40
9403;DHT22;4741;49.834;10.740;2022-07-17T14:34:53;34.60;38.30
9403;DHT22;4741;49.834;10.740;2022-07-17T14:37:20;34.30;40.70
9403;DHT22;4741;49.834;10.740;2022-07-17T14:42:16;36.10;42.50
9403;DHT22;4741;49.834;10.740;2022-07-17T14:44:42;34.70;41.40
9403;DHT22;4741;49.834;10.740;2022-07-17T14:47:09;35.50;40.50
9403;DHT22;4741;49.834;10.740;2022-07-17T14:49:37;35.80;39.30
9403;DHT22;4741;49.834;10.740;2022-07-17T14:52:03;35.70;38.90
9403;DHT22;4741;49.834;10.740;2022-07-17T14:54:30;35.70;38.90
9403;DHT22;4741;49.834;10.740;2022-07-17T14:56:57;36.60;50.30
9403;DHT22;4741;49.834;10.740;2022-07-17T14:59:25;36.00;45.80
9403;DHT22;4741;49.834;10.740;2022-07-17T15:01:52;35.60;39.30
9403;DHT22;4741;49.834;10.740;2022-07-17T15:04:20;36.70;39.60
9403;DHT22;4741;49.834;10.740;2022-07-17T15:06:46;36.30;38.00
9403;DHT22;4741;49.834;10.740;2022-07-17T15:09:13;36.40;37.80
9403;DHT22;4741;49.834;10.740;2022-07-17T15:14:07;36.10;39.00
9403;DHT22;4741;49.834;10.740;2022-07-17T15:16:34;35.50;42.80
9403;DHT22;4741;49.834;10.740;2022-07-17T15:19:01;35.00;50.20
9403;DHT22;4741;49.834;10.740;2022-07-17T15:21:28;34.00;57.50
9403;DHT22;4741;49.834;10.740;2022-07-17T15:26:42;35.50;39.30
9403;DHT22;4741;49.834;10.740;2022-07-17T15:29:13;35.10;39.60
9403;DHT22;4741;49.834;10.740;2022-07-17T15:31:40;35.20;39.20
9403;DHT22;4741;49.834;10.740;2022-07-17T15:34:07;35.20;39.00
9403;DHT22;4741;49.834;10.740;2022-07-17T15:36:34;34.50;39.80
9403;DHT22;4741;49.834;10.740;2022-07-17T15:39:00;35.30;40.00
9403;DHT22;4741;49.834;10.740;2022-07-17T15:41:27;34.90;39.60
9403;DHT22;4741;49.834;10.740;2022-07-17T15:43:54;34.50;40.30
9403;DHT22;4741;49.834;10.740;2022-07-17T15:46:21;34.80;39.70
9403;DHT22;4741;49.834;10.740;2022-07-17T15:48:48;35.70;40.00
9403;DHT22;4741;49.834;10.740;2022-07-17T15:51:15;36.20;38.30
9403;DHT22;4741;49.834;10.740;2022-07-17T15:53:42;35.90;39.80
9403;DHT22;4741;49.834;10.740;2022-07-17T15:56:08;35.50;37.80
9403;DHT22;4741;49.834;10.740;2022-07-17T15:58:35;35.20;38.60
9403;DHT22;4741;49.834;10.740;2022-07-17T16:01:02;36.00;37.70
9403;DHT22;4741;49.834;10.740;2022-07-17T16:03:30;35.40;38.50
9403;DHT22;4741;49.834;10.740;2022-07-17T16:06:04;36.10;37.80
9403;DHT22;4741;49.834;10.740;2022-07-17T16:08:30;35.70;37.70
9403;DHT22;4741;49.834;10.740;2022-07-17T16:10:57;36.20;37.50
9403;DHT22;4741;49.834;10.740;2022-07-17T16:13:24;36.10;37.80
9403;DHT22;4741;49.834;10.740;2022-07-17T16:15:51;35.70;37.30
9403;DHT22;4741;49.834;10.740;2022-07-17T16:18:18;35.80;37.60
9403;DHT22;4741;49.834;10.740;2022-07-17T16:20:45;35.60;37.60
9403;DHT22;4741;49.834;10.740;2022-07-17T17:03:34;30.10;44.40
9403;DHT22;4741;49.834;10.740;2022-07-17T17:06:18;30.20;45.20
9403;DHT22;4741;49.834;10.740;2022-07-17T17:09:39;29.90;44.80
9403;DHT22;4741;49.834;10.740;2022-07-17T17:13:13;29.10;44.90
9403;DHT22;4741;49.834;10.740;2022-07-17T17:15:40;29.10;46.00
9403;DHT22;4741;49.834;10.740;2022-07-17T17:18:13;28.80;45.40
9403;DHT22;4741;49.834;10.740;2022-07-17T17:20:39;29.00;47.60
9403;DHT22;4741;49.834;10.740;2022-07-17T17:23:06;28.40;45.60
9403;DHT22;4741;49.834;10.740;2022-07-17T17:25:33;28.00;46.60
9403;DHT22;4741;49.834;10.740;2022-07-17T17:28:06;28.10;46.20
9403;DHT22;4741;49.834;10.740;2022-07-17T17:33:00;27.90;46.50
9403;DHT22;4741;49.834;10.740;2022-07-17T17:35:27;28.00;50.00
9403;DHT22;4741;49.834;10.740;2022-07-17T17:37:53;27.60;46.60
9403;DHT22;4741;49.834;10.740;2022-07-17T17:40:20;27.50;46.20
9403;DHT22;4741;49.834;10.740;2022-07-17T17:42:47;27.40;49.20
9403;DHT22;4741;49.834;10.740;2022-07-17T17:47:42;26.80;49.20
9403;DHT22;4741;49.834;10.740;2022-07-17T17:50:09;26.80;50.30
9403;DHT22;4741;49.834;10.740;2022-07-17T17:52:36;27.40;50.80
9403;DHT22;4741;49.834;10.740;2022-07-17T17:55:03;26.70;49.40
9403;DHT22;4741;49.834;10.740;2022-07-17T17:57:30;26.60;50.10
9403;DHT22;4741;49.834;10.740;2022-07-17T17:59:57;26.30;50.50
9403;DHT22;4741;49.834;10.740;2022-07-17T18:04:51;26.20;50.90
9403;DHT22;4741;49.834;10.740;2022-07-17T18:07:18;26.00;52.80
9403;DHT22;4741;49.834;10.740;2022-07-17T18:09:44;25.80;53.80
9403;DHT22;4741;49.834;10.740;2022-07-17T18:12:12;25.60;53.60
9403;DHT22;4741;49.834;10.740;2022-07-17T18:17:06;25.60;52.20
9403;DHT22;4741;49.834;10.740;2022-07-17T18:19:32;25.50;52.80
9403;DHT22;4741;49.834;10.740;2022-07-17T18:22:00;25.50;53.20
9403;DHT22;4741;49.834;10.740;2022-07-17T18:24:27;25.40;55.10
9403;DHT22;4741;49.834;10.740;2022-07-17T18:26:53;25.30;55.30
9403;DHT22;4741;49.834;10.740;2022-07-17T18:29:22;25.30;55.60
9403;DHT22;4741;49.834;10.740;2022-07-17T18:34:17;24.90;59.90
9403;DHT22;4741;49.834;10.740;2022-07-17T18:36:44;24.20;61.00
9403;DHT22;4741;49.834;10.740;2022-07-17T18:41:39;23.60;99.90
9403;DHT22;4741;49.834;10.740;2022-07-17T18:44:09;23.60;96.70
9403;DHT22;4741;49.834;10.740;2022-07-17T18:46:36;23.70;80.70
9403;DHT22;4741;49.834;10.740;2022-07-17T18:51:30;23.40;90.80
9403;DHT22;4741;49.834;10.740;2022-07-17T18:53:57;23.30;64.00